Time;durP1;ratioP1;P1;durP2;ratioP2;P2;SDS_P1;SDS_P2;PMS_P1;PMS_P2;Temp;Humidity;BMP_temperature;BMP_pressure;BME280_temperature;BME280_humidity;BME280_pressure;Samples;Min_cycle;Max_cycle;Signal;HPM_P1;HPM_P2
2021/12/30 00:01:53;;;;;;;4.82;2.60;;;;;;;4.58;73.98;99455.22;4217604;33;33640;-89
2021/12/30 00:04:23;;;;;;;4.97;3.08;;;;;;;4.83;72.98;99463.94;4211539;33;33233;-89
2021/12/30 00:06:53;;;;;;;4.75;3.20;;;;;;;4.73;73.15;99457.88;4213096;33;34087;-89
2021/12/30 00:09:25;;;;;;;3.42;2.50;;;;;;;4.73;73.24;99463.03;4213230;33;33885;-90
2021/12/30 00:11:53;;;;;;;4.82;3.03;;;;;;;4.85;73.07;99462.25;4210238;33;34181;-89
2021/12/30 00:14:40;;;;;;;5.80;3.08;;;;;;;4.98;72.29;99464.06;4208286;34;33156;-88
2021/12/30 00:17:09;;;;;;;6.15;2.87;;;;;;;5.02;71.95;99468.34;4214119;33;33746;-91
2021/12/30 00:19:38;;;;;;;5.45;3.42;;;;;;;4.94;72.36;99477.72;4211837;34;33187;-88
2021/12/30 00:22:09;;;;;;;8.38;4.20;;;;;;;5.01;71.79;99481.22;4212383;33;32693;-90
2021/12/30 00:24:37;;;;;;;6.03;3.12;;;;;;;5.02;71.56;99482.91;4211879;34;34193;-90
2021/12/30 00:27:06;;;;;;;3.50;2.45;;;;;;;4.87;72.20;99475.97;4211851;33;34370;-89
2021/12/30 00:29:36;;;;;;;4.50;3.03;;;;;;;4.76;73.03;99473.34;4215495;34;33833;-90
2021/12/30 00:32:06;;;;;;;8.65;3.35;;;;;;;4.69;73.37;99482.72;4210491;34;33354;-88
2021/12/30 00:34:35;;;;;;;6.75;3.92;;;;;;;4.87;72.63;99484.53;4213359;33;33822;-89
2021/12/30 00:37:04;;;;;;;5.55;3.45;;;;;;;4.85;72.79;99499.09;4212936;33;34774;-88
2021/12/30 00:39:34;;;;;;;7.40;3.50;;;;;;;4.90;72.55;99499.13;4213739;34;33217;-89
2021/12/30 00:42:04;;;;;;;4.30;3.25;;;;;;;4.92;72.48;99505.13;4212950;33;33530;-88
2021/12/30 00:44:32;;;;;;;6.37;3.35;;;;;;;4.80;72.93;99498.19;4217789;34;34179;-88
2021/12/30 00:47:02;;;;;;;4.62;2.75;;;;;;;4.83;72.74;99505.94;4213946;34;33907;-89
2021/12/30 00:49:32;;;;;;;6.23;3.07;;;;;;;4.77;72.94;99500.75;4213676;33;33202;-88
2021/12/30 00:52:00;;;;;;;7.43;3.85;;;;;;;4.91;72.59;99509.41;4212989;33;33592;-88
2021/12/30 00:54:29;;;;;;;7.97;4.28;;;;;;;4.94;72.59;99518.00;4212895;33;33740;-88
2021/12/30 00:57:00;;;;;;;5.43;3.47;;;;;;;4.90;72.64;99519.69;4204224;34;34360;-88
2021/12/30 00:59:29;;;;;;;4.75;3.25;;;;;;;5.07;71.67;99525.81;4213331;33;35006;-88
2021/12/30 01:01:58;;;;;;;5.35;3.20;;;;;;;5.00;71.92;99529.19;4212940;34;36429;-89
2021/12/30 01:04:27;;;;;;;6.28;3.47;;;;;;;4.83;72.74;99533.34;4212749;34;32353;-90
2021/12/30 01:06:56;;;;;;;5.87;4.12;;;;;;;4.76;73.16;99534.13;4212531;33;33811;-89
2021/12/30 01:09:25;;;;;;;7.00;3.87;;;;;;;4.96;72.32;99540.31;4218097;34;33811;-89
2021/12/30 01:11:55;;;;;;;5.62;3.15;;;;;;;5.07;71.69;99530.97;4213572;34;32581;-89
2021/12/30 01:14:28;;;;;;;6.53;3.42;;;;;;;4.76;72.74;99531.56;4212646;34;33865;-89
2021/12/30 01:17:00;;;;;;;6.90;3.28;;;;;;;4.83;72.51;99531.66;4213672;33;33214;-90
2021/12/30 01:19:43;;;;;;;7.70;3.30;;;;;;;4.90;72.55;99529.97;4213016;34;33891;-90
2021/12/30 01:22:14;;;;;;;5.37;3.55;;;;;;;4.82;72.61;99534.19;4213391;34;34766;-88
2021/12/30 01:24:43;;;;;;;5.63;3.43;;;;;;;4.69;73.10;99543.53;4205326;34;33063;-89
2021/12/30 01:27:14;;;;;;;6.53;3.03;;;;;;;5.06;71.87;99548.94;4212036;33;33665;-88
2021/12/30 01:29:45;;;;;;;5.30;3.55;;;;;;;4.98;72.25;99550.56;4214250;34;34391;-91
2021/12/30 01:32:14;;;;;;;6.05;4.00;;;;;;;4.93;72.25;99553.13;4215886;33;34055;-89
2021/12/30 01:34:42;;;;;;;5.62;3.45;;;;;;;4.78;73.02;99545.28;4212170;34;33547;-90
2021/12/30 01:37:18;;;;;;;8.60;3.90;;;;;;;4.89;72.35;99541.09;4215430;34;33905;-88
2021/12/30 01:39:48;;;;;;;5.43;4.10;;;;;;;4.81;72.55;99548.75;4217495;33;33654;-88
2021/12/30 01:42:17;;;;;;;6.18;3.35;;;;;;;4.77;72.88;99551.28;4212555;34;33658;-88
2021/12/30 01:44:48;;;;;;;5.70;3.72;;;;;;;5.00;72.36;99551.44;4213590;34;34471;-89
2021/12/30 01:47:17;;;;;;;6.70;3.65;;;;;;;4.87;72.60;99558.22;4212822;33;32378;-87
2021/12/30 01:49:46;;;;;;;6.15;3.60;;;;;;;4.96;72.07;99557.44;4199884;34;33063;-88
2021/12/30 01:52:14;;;;;;;6.45;3.20;;;;;;;4.81;72.90;99553.03;4218529;33;32964;-88
2021/12/30 01:54:46;;;;;;;5.85;3.45;;;;;;;4.87;72.70;99556.50;4214131;33;33573;-89
2021/12/30 01:57:15;;;;;;;6.40;3.60;;;;;;;5.05;72.15;99555.78;4212318;33;32963;-88
2021/12/30 01:59:44;;;;;;;5.75;3.62;;;;;;;4.98;72.24;99561.75;4211646;33;34712;-90
2021/12/30 02:02:15;;;;;;;8.18;3.53;;;;;;;5.02;72.05;99560.91;4213022;34;33769;-89
2021/12/30 02:04:45;;;;;;;6.65;4.62;;;;;;;4.89;72.01;99559.94;4217124;34;33662;-90
2021/12/30 02:07:17;;;;;;;5.07;3.62;;;;;;;4.89;72.45;99556.53;4217242;33;34220;-89
2021/12/30 02:09:47;;;;;;;6.12;2.75;;;;;;;4.44;73.73;99552.72;4214392;33;33860;-89
2021/12/30 02:12:15;;;;;;;5.35;3.62;;;;;;;4.44;74.27;99553.56;4212964;34;33997;-90
2021/12/30 02:14:44;;;;;;;7.85;3.80;;;;;;;4.72;72.80;99550.41;4212584;33;34482;-90
2021/12/30 02:17:15;;;;;;;6.32;3.30;;;;;;;4.73;73.26;99552.09;4213873;33;32948;-90
2021/12/30 02:19:44;;;;;;;6.10;3.70;;;;;;;4.79;72.93;99550.47;4216966;34;35229;-90
2021/12/30 02:22:14;;;;;;;6.78;3.25;;;;;;;4.97;72.53;99546.28;4200166;34;32739;-88
2021/12/30 02:24:46;;;;;;;6.00;3.85;;;;;;;4.57;73.74;99561.41;4214142;33;32841;-88
2021/12/30 02:27:14;;;;;;;4.70;3.08;;;;;;;4.43;73.99;99559.56;4211725;33;33985;-88
2021/12/30 02:29:43;;;;;;;6.18;3.37;;;;;;;4.65;73.58;99554.62;4212389;33;33985;-88
2021/12/30 02:32:12;;;;;;;6.00;3.78;;;;;;;4.75;73.38;99563.28;4217736;33;33297;-87
2021/12/30 02:34:41;;;;;;;8.27;3.80;;;;;;;4.44;74.49;99566.41;4213318;34;34669;-88
2021/12/30 02:37:11;;;;;;;6.22;3.58;;;;;;;4.64;73.97;99568.28;4213081;33;34597;-88
2021/12/30 02:39:43;;;;;;;5.35;3.65;;;;;;;4.29;74.57;99550.87;4213577;33;34277;-88
2021/12/30 02:42:12;;;;;;;7.30;2.95;;;;;;;3.98;75.52;99553.09;4211739;33;31877;-88
2021/12/30 02:44:41;;;;;;;6.55;3.92;;;;;;;4.19;75.04;99551.63;4212922;34;33955;-88
2021/12/30 02:47:13;;;;;;;6.75;3.40;;;;;;;3.62;77.49;99536.44;4213761;33;34374;-88
2021/12/30 02:49:43;;;;;;;4.62;3.25;;;;;;;3.82;76.95;99535.81;4205624;33;34544;-88
2021/12/30 02:52:12;;;;;;;5.28;3.03;;;;;;;3.75;77.24;99536.59;4209432;33;33950;-89
2021/12/30 02:54:43;;;;;;;5.75;3.08;;;;;;;3.50;78.75;99548.25;4212188;34;34473;-89
2021/12/30 02:57:12;;;;;;;5.97;3.42;;;;;;;3.62;77.67;99548.41;4206409;33;34021;-89
2021/12/30 02:59:41;;;;;;;6.32;3.53;;;;;;;3.70;77.49;99551.94;4217347;33;33884;-91
2021/12/30 03:02:09;;;;;;;5.22;3.40;;;;;;;3.69;78.10;99545.06;4211744;34;33309;-88
2021/12/30 03:04:39;;;;;;;5.80;3.42;;;;;;;4.23;75.87;99546.53;4212289;34;33181;-88
2021/12/30 03:07:08;;;;;;;5.78;3.70;;;;;;;4.32;75.15;99548.31;4214251;33;34121;-88
2021/12/30 03:09:37;;;;;;;6.62;3.33;;;;;;;4.09;76.05;99549.81;4216120;34;34540;-88
2021/12/30 03:12:08;;;;;;;7.35;3.78;;;;;;;4.39;75.42;99549.25;4218987;33;33116;-90
2021/12/30 03:14:39;;;;;;;6.12;3.75;;;;;;;4.44;75.42;99563.00;4198509;34;33088;-89
2021/12/30 03:17:08;;;;;;;10.93;4.30;;;;;;;4.65;74.69;99564.91;4208696;33;34050;-89
2021/12/30 03:19:37;;;;;;;8.93;3.70;;;;;;;4.72;74.36;99563.25;4213318;33;34614;-88
2021/12/30 03:22:06;;;;;;;9.85;4.47;;;;;;;4.64;74.19;99558.03;4202082;34;32240;-88
2021/12/30 03:24:35;;;;;;;7.35;4.25;;;;;;;4.61;74.63;99566.56;4219035;34;33886;-90
2021/12/30 03:27:05;;;;;;;8.40;4.53;;;;;;;4.38;74.74;99560.38;4224890;33;33571;-89
2021/12/30 03:29:36;;;;;;;7.73;4.13;;;;;;;4.59;74.54;99557.13;4222256;33;32720;-88
2021/12/30 03:32:08;;;;;;;7.00;3.78;;;;;;;4.75;73.97;99566.69;4213901;33;34020;-89
2021/12/30 03:34:37;;;;;;;6.60;4.53;;;;;;;4.84;73.93;99573.63;4210596;33;33765;-88
2021/12/30 03:37:06;;;;;;;7.18;4.05;;;;;;;4.66;73.70;99574.31;4214232;34;33659;-88
2021/12/30 03:39:35;;;;;;;6.85;4.03;;;;;;;4.73;74.00;99567.53;4215118;33;33978;-89
2021/12/30 03:42:05;;;;;;;7.25;4.22;;;;;;;4.60;74.33;99571.72;4213940;34;33561;-89
2021/12/30 03:44:34;;;;;;;5.05;3.67;;;;;;;4.48;74.64;99575.88;4214664;33;34533;-89
2021/12/30 03:47:05;;;;;;;5.90;3.33;;;;;;;4.14;75.94;99573.81;4213412;34;33932;-88
2021/12/30 03:49:34;;;;;;;13.05;4.18;;;;;;;4.50;74.86;99583.59;4214096;34;34657;-89
2021/12/30 03:52:03;;;;;;;5.47;3.60;;;;;;;4.55;74.59;99584.50;4218523;34;32761;-89
2021/12/30 03:54:32;;;;;;;6.07;3.35;;;;;;;4.66;74.09;99592.31;4212174;34;33439;-89
2021/12/30 03:57:01;;;;;;;7.37;4.05;;;;;;;4.62;74.24;99588.84;4213785;34;33571;-89
2021/12/30 03:59:30;;;;;;;6.37;4.57;;;;;;;4.73;73.95;99600.94;4213143;33;33930;-89
2021/12/30 04:01:58;;;;;;;7.03;4.25;;;;;;;4.76;73.92;99601.84;4213817;34;33773;-89
2021/12/30 04:04:29;;;;;;;10.98;4.72;;;;;;;4.50;74.76;99599.03;4218256;34;33198;-89
2021/12/30 04:06:58;;;;;;;6.35;4.35;;;;;;;4.52;74.90;99602.47;4213644;34;34346;-89
2021/12/30 04:09:27;;;;;;;8.95;4.65;;;;;;;4.66;74.03;99608.59;4202240;34;33859;-89
2021/12/30 04:11:56;;;;;;;10.63;4.47;;;;;;;4.44;74.69;99594.66;4215487;33;34042;-89
2021/12/30 04:14:27;;;;;;;16.75;4.45;;;;;;;3.96;76.41;99592.44;4215286;34;33735;-88
2021/12/30 04:16:56;;;;;;;6.90;3.75;;;;;;;4.41;74.97;99609.19;4219718;33;33991;-88
2021/12/30 04:19:25;;;;;;;5.72;3.87;;;;;;;4.43;74.96;99612.66;4217242;33;32493;-89
2021/12/30 04:21:57;;;;;;;7.32;4.40;;;;;;;4.48;74.69;99608.41;4215458;34;34090;-89
2021/12/30 04:24:26;;;;;;;8.73;4.53;;;;;;;4.41;74.98;99615.19;4212778;34;33700;-89
2021/12/30 04:26:54;;;;;;;10.65;4.47;;;;;;;4.40;75.19;99625.47;4215326;34;34594;-90
2021/12/30 04:29:24;;;;;;;8.55;4.65;;;;;;;4.41;74.80;99630.59;4216307;33;33852;-91
2021/12/30 04:31:53;;;;;;;6.00;4.32;;;;;;;4.28;75.48;99639.88;4220360;33;34170;-89
2021/12/30 04:34:22;;;;;;;8.05;4.40;;;;;;;4.48;75.07;99636.66;4215305;34;33536;-89
2021/12/30 04:36:53;;;;;;;6.75;4.28;;;;;;;4.64;74.23;99627.41;4216319;34;34010;-88
2021/12/30 04:39:23;;;;;;;7.85;3.72;;;;;;;4.51;74.76;99634.13;4215388;34;33110;-89
2021/12/30 04:41:52;;;;;;;6.18;4.12;;;;;;;4.53;74.63;99635.00;4215175;34;33323;-89
2021/12/30 04:44:22;;;;;;;8.93;4.12;;;;;;;4.33;75.43;99645.06;4219583;33;34598;-89
2021/12/30 04:46:51;;;;;;;7.68;4.60;;;;;;;4.53;75.02;99655.56;4214534;33;33849;-90
2021/12/30 04:49:19;;;;;;;9.65;4.82;;;;;;;4.83;74.04;99660.16;4215466;34;33849;-89
2021/12/30 04:51:49;;;;;;;10.40;3.95;;;;;;;4.60;74.87;99666.78;4215268;33;34081;-90
2021/12/30 04:54:18;;;;;;;6.50;3.62;;;;;;;4.78;74.11;99666.94;4214860;33;33775;-89
2021/12/30 04:56:48;;;;;;;8.52;4.37;;;;;;;4.61;74.74;99673.63;4220281;34;34749;-89
2021/12/30 04:59:17;;;;;;;6.10;3.00;;;;;;;4.75;74.42;99677.19;4213623;34;33259;-89
2021/12/30 05:01:46;;;;;;;7.57;4.37;;;;;;;4.86;74.41;99691.03;4223863;33;33685;-89
2021/12/30 05:04:15;;;;;;;13.43;5.05;;;;;;;4.98;73.83;99700.56;4216975;33;33923;-89
2021/12/30 05:06:44;;;;;;;6.20;3.92;;;;;;;4.96;73.75;99699.69;4228267;33;34080;-89
2021/12/30 05:09:13;;;;;;;10.07;4.15;;;;;;;4.92;73.92;99710.78;4217846;34;33550;-88
2021/12/30 05:11:42;;;;;;;7.75;4.37;;;;;;;5.04;73.70;99721.19;4219403;33;32786;-90
2021/12/30 05:14:13;;;;;;;10.55;5.15;;;;;;;5.12;73.05;99729.84;4214630;34;33842;-89
2021/12/30 05:16:41;;;;;;;8.15;4.05;;;;;;;5.11;72.87;99746.09;4210942;33;34149;-89
2021/12/30 05:19:11;;;;;;;9.50;5.05;;;;;;;5.12;73.01;99755.56;4209241;33;33761;-90
2021/12/30 05:21:39;;;;;;;6.05;3.40;;;;;;;5.22;72.54;99753.06;4215124;34;33773;-88
2021/12/30 05:24:09;;;;;;;6.82;4.05;;;;;;;5.19;72.56;99756.47;4219839;34;33747;-89
2021/12/30 05:26:38;;;;;;;12.50;4.40;;;;;;;5.28;71.83;99766.84;4214919;34;33980;-88
2021/12/30 05:29:09;;;;;;;6.10;3.50;;;;;;;5.14;72.65;99764.13;4222252;33;33848;-89
2021/12/30 05:31:39;;;;;;;;;;;;;;;5.20;72.49;99765.06;4223980;33;32474;-89
2021/12/30 05:34:08;;;;;;;8.18;4.35;;;;;;;5.22;72.25;99765.91;4215210;34;34648;-90
2021/12/30 05:36:36;;;;;;;5.12;3.37;;;;;;;5.17;72.67;99758.19;4220395;34;34657;-89
2021/12/30 05:39:05;;;;;;;9.43;4.47;;;;;;;5.15;72.34;99759.88;4214350;33;33683;-89
2021/12/30 05:41:34;;;;;;;6.20;4.35;;;;;;;5.14;72.71;99765.84;4214788;34;33295;-90
2021/12/30 05:44:03;;;;;;;8.35;4.75;;;;;;;5.12;72.67;99773.56;4214537;34;33506;-90
2021/12/30 05:46:32;;;;;;;9.13;4.82;;;;;;;5.08;73.00;99773.50;4212921;33;34544;-91
2021/12/30 05:49:05;;;;;;;8.50;4.93;;;;;;;5.03;73.28;99786.31;4218782;34;34188;-90
2021/12/30 05:51:34;;;;;;;7.15;3.62;;;;;;;5.11;72.90;99776.09;4211601;33;34393;-90
2021/12/30 05:54:03;;;;;;;7.30;4.45;;;;;;;4.91;73.51;99779.34;4214407;34;34634;-90
2021/12/30 05:56:32;;;;;;;7.62;3.60;;;;;;;4.87;73.50;99775.00;4214953;34;33858;-89
2021/12/30 05:59:01;;;;;;;6.15;3.67;;;;;;;4.80;74.24;99780.06;4206508;34;33362;-90
2021/12/30 06:01:30;;;;;;;8.15;3.97;;;;;;;4.64;74.64;99773.84;4218035;33;31717;-90
2021/12/30 06:04:05;;;;;;;8.05;4.35;;;;;;;4.78;74.11;99774.88;4220839;33;33519;-90
2021/12/30 06:06:34;;;;;;;6.18;3.30;;;;;;;5.03;73.17;99772.63;4214424;34;32919;-91
2021/12/30 06:09:02;;;;;;;6.47;3.75;;;;;;;4.98;73.10;99781.94;4214572;33;34152;-91
2021/12/30 06:11:31;;;;;;;7.70;3.97;;;;;;;4.61;74.44;99794.38;4214848;34;33825;-91
2021/12/30 06:14:00;;;;;;;8.10;4.55;;;;;;;4.89;73.49;99805.88;4213585;34;33834;-91
2021/12/30 06:16:29;;;;;;;8.15;4.25;;;;;;;4.95;73.54;99813.62;4217236;33;34032;-91
2021/12/30 06:18:59;;;;;;;7.43;3.65;;;;;;;5.09;72.90;99817.22;4214074;34;33870;-91
2021/12/30 06:21:29;;;;;;;7.07;3.95;;;;;;;5.12;72.91;99807.00;4214633;34;33290;-91
2021/12/30 06:23:58;;;;;;;7.80;3.78;;;;;;;5.02;73.36;99810.28;4214228;33;33044;-90
2021/12/30 06:26:27;;;;;;;6.87;4.05;;;;;;;4.92;73.36;99809.31;4211173;34;33966;-90
2021/12/30 06:28:58;;;;;;;8.85;4.50;;;;;;;4.96;73.51;99817.94;4219715;34;33152;-90
2021/12/30 06:31:29;;;;;;;6.93;3.97;;;;;;;4.89;73.67;99822.16;4219259;33;33339;-91
2021/12/30 06:33:58;;;;;;;6.22;3.33;;;;;;;5.03;73.49;99832.59;4215015;33;32616;-91
2021/12/30 06:36:27;;;;;;;8.52;4.12;;;;;;;5.02;73.28;99832.56;4213421;33;34113;-90
2021/12/30 06:38:57;;;;;;;7.32;3.42;;;;;;;4.92;73.48;99835.03;4214528;34;33746;-91
2021/12/30 06:41:25;;;;;;;6.60;4.05;;;;;;;4.95;73.51;99841.91;4214874;34;36000;-91
2021/12/30 06:43:54;;;;;;;8.52;3.95;;;;;;;4.95;73.54;99846.19;4219421;34;33585;-90
2021/12/30 06:46:23;;;;;;;8.90;3.65;;;;;;;4.98;73.35;99859.09;4213680;34;33625;-91
2021/12/30 06:48:52;;;;;;;12.07;4.65;;;;;;;5.08;73.22;99861.81;4214806;33;34404;-91
2021/12/30 06:51:23;;;;;;;6.45;3.92;;;;;;;4.77;73.64;99854.56;4214916;33;32981;-91
2021/12/30 06:53:54;;;;;;;7.15;4.00;;;;;;;4.83;73.63;99870.03;4211868;33;34212;-90
2021/12/30 06:56:25;;;;;;;5.90;4.53;;;;;;;4.86;73.47;99877.81;4214543;33;31025;-91
2021/12/30 06:58:53;;;;;;;7.47;4.65;;;;;;;4.96;73.30;99897.66;4207467;34;33260;-90
2021/12/30 07:01:22;;;;;;;7.20;3.72;;;;;;;5.04;73.03;99920.88;4214395;34;33300;-90
2021/12/30 07:03:51;;;;;;;7.70;3.53;;;;;;;5.08;72.75;99922.66;4214713;34;33402;-90
2021/12/30 07:06:20;;;;;;;9.20;4.18;;;;;;;5.01;72.85;99932.00;4213185;33;34594;-91
2021/12/30 07:08:49;;;;;;;5.50;4.07;;;;;;;5.14;72.12;99923.56;4217909;34;33533;-90
2021/12/30 07:11:18;;;;;;;6.35;4.00;;;;;;;5.06;72.48;99909.78;4219073;34;33197;-90
2021/12/30 07:13:48;;;;;;;8.25;3.70;;;;;;;4.94;72.91;99908.75;4214116;34;34041;-90
2021/12/30 07:16:17;;;;;;;7.43;4.82;;;;;;;4.59;74.00;99911.69;4214224;34;35848;-91
2021/12/30 07:18:46;;;;;;;6.45;3.67;;;;;;;4.64;73.82;99916.06;4214042;34;33941;-90
2021/12/30 07:21:15;;;;;;;6.03;3.25;;;;;;;4.80;73.44;99908.56;4213879;34;33692;-90
2021/12/30 07:23:43;;;;;;;5.85;3.08;;;;;;;4.58;74.38;99908.25;4219286;34;33357;-91
2021/12/30 07:26:12;;;;;;;7.60;4.05;;;;;;;4.72;73.78;99913.59;4213909;34;33854;-91
2021/12/30 07:28:41;;;;;;;4.95;3.12;;;;;;;4.56;74.30;99915.06;4214579;34;34115;-91
2021/12/30 07:31:11;;;;;;;7.80;3.53;;;;;;;4.82;73.74;99914.59;4202243;34;33970;-91
2021/12/30 07:33:40;;;;;;;6.20;4.07;;;;;;;4.87;73.67;99925.78;4212775;34;33866;-91
2021/12/30 07:36:09;;;;;;;6.00;3.87;;;;;;;4.96;73.31;99940.50;4218815;34;33938;-91
2021/12/30 07:38:38;;;;;;;10.70;4.20;;;;;;;4.94;73.22;99945.59;4213931;34;32732;-91
2021/12/30 07:41:06;;;;;;;5.45;3.83;;;;;;;4.75;74.07;99949.63;4213594;34;33319;-90
2021/12/30 07:43:35;;;;;;;8.50;3.78;;;;;;;4.64;74.46;99949.47;4203110;34;34450;-91
2021/12/30 07:46:06;;;;;;;6.65;4.00;;;;;;;4.84;73.91;99947.19;4213559;34;34053;-90
2021/12/30 07:48:36;;;;;;;6.45;3.78;;;;;;;4.87;73.58;99946.38;4219097;34;34713;-91
2021/12/30 07:51:05;;;;;;;7.03;4.20;;;;;;;4.84;73.82;99943.75;4215388;34;33669;-91
2021/12/30 07:53:34;;;;;;;5.70;3.70;;;;;;;4.76;74.00;99945.34;4206823;33;33966;-90
2021/12/30 07:56:03;;;;;;;6.30;3.45;;;;;;;4.91;73.77;99955.84;4214027;33;34370;-91
2021/12/30 07:58:32;;;;;;;6.70;3.58;;;;;;;4.95;73.29;99946.47;4213804;34;34044;-91
2021/12/30 08:01:05;;;;;;;9.38;4.97;;;;;;;4.89;73.87;99954.97;4201247;34;32661;-90
2021/12/30 08:03:35;;;;;;;8.23;4.82;;;;;;;4.94;73.48;99953.31;4218832;34;33818;-90
2021/12/30 08:06:32;;;;;;;9.85;4.60;;;;;;;4.88;73.63;99954.09;4210965;34;32986;-90
2021/12/30 08:09:22;;;;;;;7.00;4.47;;;;;;;5.00;73.18;99961.13;4199426;34;34745;-91
2021/12/30 08:12:00;;;;;;;5.50;3.50;;;;;;;4.82;74.16;99948.00;4200753;34;33664;-91
2021/12/30 08:14:54;;;;;;;7.60;4.10;;;;;;;4.82;74.49;99954.00;4201791;34;34778;-91
2021/12/30 08:17:42;;;;;;;7.47;3.97;;;;;;;4.90;74.56;99952.44;4202337;34;35253;-91
2021/12/30 08:20:29;;;;;;;6.32;3.65;;;;;;;4.82;74.68;99964.28;4211827;34;34838;-90
2021/12/30 08:23:08;;;;;;;6.28;4.05;;;;;;;4.77;75.22;99952.22;4199243;34;33914;-89
2021/12/30 08:25:49;;;;;;;7.60;4.22;;;;;;;4.70;75.76;99961.53;4200574;34;34242;-90
2021/12/30 08:28:46;;;;;;;8.32;3.83;;;;;;;5.11;74.15;99962.13;4203974;34;34473;-90
2021/12/30 08:31:26;;;;;;;5.22;3.17;;;;;;;4.98;74.53;99969.63;4187738;34;34929;-89
2021/12/30 08:34:15;;;;;;;7.50;3.95;;;;;;;5.05;74.36;99968.88;4206877;34;33742;-89
2021/12/30 08:37:11;;;;;;;10.52;3.40;;;;;;;4.85;74.86;99966.91;4193133;34;35265;-89
2021/12/30 08:40:01;;;;;;;6.55;3.28;;;;;;;5.13;74.06;99972.44;4198541;34;35834;-90
2021/12/30 09:23:55;;;;;;;13.15;5.43;;;;;;;5.61;73.63;99985.91;4193829;33;34815;-90
2021/12/30 09:44:46;;;;;;;11.02;5.00;;;;;;;5.84;72.30;99996.44;4205648;34;33937;-91
2021/12/30 09:47:33;;;;;;;10.65;4.82;;;;;;;5.84;72.57;100007.59;4183120;34;34020;-91
2021/12/30 09:50:02;;;;;;;6.85;4.07;;;;;;;5.71;73.02;100003.16;4187471;34;33688;-90
2021/12/30 09:52:42;;;;;;;8.73;5.72;;;;;;;5.95;72.17;100008.62;4185253;34;33077;-90
2021/12/30 10:11:50;;;;;;;7.50;4.25;;;;;;;5.91;72.54;100011.09;4119243;34;33201;-90
2021/12/30 10:18:08;;;;;;;10.07;5.78;;;;;;;6.13;72.23;100007.94;4093765;34;34541;-90
2021/12/30 10:20:55;;;;;;;13.52;5.78;;;;;;;6.19;72.04;100008.00;4101802;34;35787;-90
2021/12/30 10:23:32;;;;;;;12.02;5.40;;;;;;;6.00;72.59;100000.94;4093285;35;34133;-89
2021/12/30 10:26:17;;;;;;;10.02;4.75;;;;;;;6.17;72.17;99999.41;4094497;34;34241;-89
2021/12/30 10:29:06;;;;;;;12.50;6.20;;;;;;;6.24;71.61;100004.62;4091547;35;34379;-92
2021/12/30 10:31:54;;;;;;;9.73;5.68;;;;;;;6.19;71.32;99992.56;4102910;34;35142;-89
2021/12/30 10:34:28;;;;;;;14.85;6.57;;;;;;;6.18;71.35;99997.69;4091626;35;34103;-89
2021/12/30 10:37:27;;;;;;;9.20;5.80;;;;;;;6.22;71.49;100001.16;4118391;34;35124;-89
2021/12/30 10:40:06;;;;;;;11.75;5.90;;;;;;;6.11;71.86;99998.47;4146378;34;34659;-89
2021/12/30 10:42:41;;;;;;;11.48;5.50;;;;;;;6.26;71.59;100016.66;4165730;34;33987;-90
2021/12/30 10:45:21;;;;;;;13.18;6.72;;;;;;;6.21;72.05;100010.59;4177139;34;34055;-90
2021/12/30 10:48:01;;;;;;;10.93;7.28;;;;;;;6.21;71.98;100002.87;4180152;34;34605;-90
2021/12/30 10:50:36;;;;;;;10.90;7.32;;;;;;;6.13;72.40;100000.19;4182063;34;33912;-90
2021/12/30 10:53:12;;;;;;;12.45;7.28;;;;;;;6.31;72.14;99996.97;4181634;34;33359;-90
2021/12/30 10:55:54;;;;;;;15.15;9.15;;;;;;;6.22;72.42;99988.28;4181165;34;134099;-90
2021/12/30 15:18:52;;;;;;;17.87;6.47;;;;;;;6.33;73.75;100053.63;5271197;26;1056550;-89
2021/12/30 15:22:13;;;;;;;12.05;5.82;;;;;;;6.10;74.81;100051.69;5333810;26;34854;-89
2021/12/30 16:05:47;;;;;;;9.63;5.28;;;;;;;6.93;71.85;100080.81;5104284;28;33901;-88
2021/12/30 16:12:30;;;;;;;10.70;5.15;;;;;;;6.87;72.51;100077.34;5117062;27;34142;-90
2021/12/30 16:15:23;;;;;;;15.63;5.78;;;;;;;7.08;71.25;100094.69;5156044;27;35683;-89
2021/12/30 16:21:31;;;;;;;15.38;6.95;;;;;;;7.08;71.19;100090.41;5234324;27;33549;-90
2021/12/30 16:43:41;;;;;;;;;;;;;;;;;;;;;
2021/12/30 16:56:19;;;;;;;10.77;5.22;;;;;;;6.61;73.09;100125.22;5113609;28;34215;-89
2021/12/30 17:04:22;;;;;;;15.73;6.55;;;;;;;6.78;72.94;100112.50;5111550;27;34062;-90
2021/12/30 17:16:30;;;;;;;10.65;5.75;;;;;;;6.72;73.12;100112.47;5171974;27;35333;-89
2021/12/30 17:19:38;;;;;;;11.02;5.40;;;;;;;6.91;72.44;100108.34;5168641;27;34726;-90
2021/12/30 17:26:05;;;;;;;14.70;6.18;;;;;;;6.78;73.05;100112.50;5231951;27;33857;-90
2021/12/30 17:29:17;;;;;;;13.45;7.45;;;;;;;6.82;72.65;100101.37;5230751;27;34840;-91
2021/12/30 17:51:02;;;;;;;;;;;;;;;6.92;72.60;100133.25;5292464;27;34649;-89
2021/12/30 17:57:28;;;;;;;17.58;9.15;;;;;;;7.03;72.41;100141.97;5292698;27;34864;-89
2021/12/30 18:00:37;;;;;;;16.55;8.55;;;;;;;6.87;73.00;100139.25;5292754;27;34931;-92
2021/12/30 18:06:32;;;;;;;16.10;8.18;;;;;;;7.00;72.59;100144.50;5293776;27;34632;-90
2021/12/30 18:15:42;;;;;;;10.52;7.05;;;;;;;6.91;73.68;100138.38;5283081;27;34756;-91
2021/12/30 18:18:35;;;;;;;14.65;7.45;;;;;;;7.15;73.03;100127.41;5292375;27;35160;-90
2021/12/30 18:21:22;;;;;;;11.60;6.57;;;;;;;7.15;72.82;100132.56;5293251;27;34330;-90
2021/12/30 18:24:03;;;;;;;17.60;8.27;;;;;;;7.25;72.51;100131.81;5291653;27;33135;-90
2021/12/30 18:34:28;;;;;;;10.57;6.85;;;;;;;7.40;71.35;100120.72;5231604;27;34695;-89
2021/12/30 18:37:17;;;;;;;12.32;7.80;;;;;;;7.59;70.91;100116.53;5248212;27;34085;-89
2021/12/30 18:40:01;;;;;;;20.00;8.43;;;;;;;7.45;70.96;100121.63;5248717;27;33574;-90
2021/12/30 18:43:05;;;;;;;14.40;8.40;;;;;;;7.44;71.10;100136.25;5229245;27;36417;-89
2021/12/30 18:45:46;;;;;;;14.82;6.75;;;;;;;6.94;73.28;100135.87;5230462;27;34887;-89
2021/12/30 18:48:19;;;;;;;14.80;9.13;;;;;;;7.22;72.49;100153.31;5249076;27;33764;-91
2021/12/30 18:51:02;;;;;;;13.05;7.75;;;;;;;7.14;72.53;100149.78;5235883;27;33683;-89
2021/12/30 18:53:36;;;;;;;19.35;8.27;;;;;;;7.31;71.91;100146.47;5247610;27;36328;-90
2021/12/30 18:56:08;;;;;;;21.58;8.68;;;;;;;7.38;71.48;100154.25;5246073;27;33230;-90
2021/12/30 18:58:41;;;;;;;17.55;9.07;;;;;;;7.31;71.86;100159.37;5248697;27;34717;-89
2021/12/30 19:01:14;;;;;;;11.50;7.75;;;;;;;7.22;72.28;100158.47;5231270;27;34516;-91
2021/12/30 19:03:43;;;;;;;13.15;6.05;;;;;;;7.27;71.83;100155.87;5249736;27;35100;-89
2021/12/30 19:06:14;;;;;;;;;;;;;;;6.92;73.15;100151.31;5237165;27;34379;-89
2021/12/30 19:08:46;;;;;;;11.88;6.43;;;;;;;6.92;73.21;100155.63;5249253;27;34070;-89
2021/12/30 19:11:16;;;;;;;14.63;8.23;;;;;;;6.95;72.93;100150.47;5309722;27;31889;-92
2021/12/30 19:17:09;;;;;;;14.40;9.10;;;;;;;7.00;73.15;100153.94;5288398;27;35036;-91
2021/12/30 19:26:42;;;;;;;8.98;6.37;;;;;;;6.86;73.93;100147.81;5300315;26;36339;-90
2021/12/30 19:29:14;;;;;;;9.98;5.65;;;;;;;6.91;73.63;100146.13;5313998;27;34332;-90
2021/12/30 19:32:02;;;;;;;14.77;7.93;;;;;;;6.90;73.71;100144.41;5314744;27;34082;-90
2021/12/30 19:35:13;;;;;;;8.52;5.97;;;;;;;6.96;73.65;100147.03;5307225;27;34489;-91
2021/12/30 19:37:58;;;;;;;10.23;5.30;;;;;;;7.13;73.18;100140.31;5315805;27;35001;-91
2021/12/30 19:47:28;;;;;;;11.63;5.75;;;;;;;7.19;73.02;100134.34;5314246;27;34586;-91
2021/12/30 19:50:53;;;;;;;;;;;;;;;7.19;72.97;100129.19;5331573;26;34885;-90
2021/12/30 19:56:33;;;;;;;8.88;5.28;;;;;;;7.40;72.32;100143.97;5313831;27;32989;-91
2021/12/30 19:59:21;;;;;;;12.30;6.25;;;;;;;7.29;72.74;100146.44;5314457;27;34399;-91
2021/12/30 20:05:14;;;;;;;13.35;7.68;;;;;;;7.16;73.47;100142.91;5315009;27;34701;-90
2021/12/30 20:31:35;;;;;;;12.88;6.22;;;;;;;7.31;73.61;100131.84;5210073;27;20070;-91
2021/12/30 20:34:24;;;;;;;9.98;6.60;;;;;;;7.35;73.42;100128.44;5207266;27;35356;-90
2021/12/30 20:37:07;;;;;;;9.30;5.75;;;;;;;7.17;73.87;100130.88;5208773;27;34900;-89
2021/12/30 20:39:41;;;;;;;8.80;5.20;;;;;;;7.30;73.68;100132.72;5226366;27;34659;-90
2021/12/30 20:42:17;;;;;;;13.27;7.12;;;;;;;7.42;73.32;100127.63;5208643;27;34323;-90
2021/12/30 20:44:49;;;;;;;13.13;7.70;;;;;;;7.43;73.24;100124.19;5225587;27;34711;-90
2021/12/30 20:47:19;;;;;;;11.32;7.37;;;;;;;7.43;73.50;100123.31;5268659;27;33361;-90
2021/12/30 20:49:50;;;;;;;12.77;8.05;;;;;;;7.45;73.39;100116.44;5290944;27;34599;-90
2021/12/30 20:52:23;;;;;;;13.62;7.07;;;;;;;7.50;73.37;100117.34;5290774;27;35110;-89
2021/12/30 20:54:57;;;;;;;11.63;7.53;;;;;;;7.49;73.43;100115.63;5295218;27;34150;-89